Time;durP1;ratioP1;P1;durP2;ratioP2;P2;SDS_P1;SDS_P2;PMS_P1;PMS_P2;Temp;Humidity;BMP_temperature;BMP_pressure;BME280_temperature;BME280_humidity;BME280_pressure;Samples;Min_cycle;Max_cycle;Signal;HPM_P1;HPM_P2
2022/01/31 00:01:52;;;;;;;22.75;4.67;;;;;;;1.16;75.25;100311.69;1786992;78;98499;-71
2022/01/31 00:04:18;;;;;;;27.05;4.67;;;;;;;1.16;75.34;100322.69;1777164;78;26264;-71
2022/01/31 00:06:48;;;;;;;28.02;4.30;;;;;;;1.14;75.37;100333.71;1789681;78;98485;-71
2022/01/31 00:09:16;;;;;;;25.48;3.87;;;;;;;1.15;75.49;100337.66;1784057;78;27308;-70
2022/01/31 00:11:45;;;;;;;29.65;4.50;;;;;;;1.14;75.53;100331.07;1787975;78;25948;-71
2022/01/31 00:14:27;;;;;;;22.50;4.15;;;;;;;1.12;75.51;100327.57;1777147;78;98339;-71
2022/01/31 00:16:38;;;;;;;17.32;3.90;;;;;;;1.10;75.55;100326.27;1777948;78;25789;-71
2022/01/31 00:19:04;;;;;;;27.70;4.17;;;;;;;1.07;75.56;100322.78;1783034;78;98575;-70
2022/01/31 00:21:30;;;;;;;22.45;4.30;;;;;;;1.06;75.51;100325.87;1779860;78;27481;-71
2022/01/31 00:23:56;;;;;;;44.13;5.92;;;;;;;1.05;75.56;100312.24;1777765;78;98636;-71
2022/01/31 00:26:22;;;;;;;30.08;4.33;;;;;;;1.00;75.57;100306.13;1784557;78;25764;-71
2022/01/31 00:28:47;;;;;;;29.15;5.28;;;;;;;0.97;75.62;100308.36;1786786;78;26498;-70
2022/01/31 00:31:13;;;;;;;26.65;5.10;;;;;;;0.98;75.80;100310.11;1779674;79;98470;-70
2022/01/31 00:33:39;;;;;;;26.87;4.67;;;;;;;1.00;75.92;100317.14;1782615;78;28019;-71
2022/01/31 00:36:05;;;;;;;27.55;4.42;;;;;;;0.98;75.93;100313.20;1780350;78;98559;-71
2022/01/31 00:38:31;;;;;;;29.82;3.90;;;;;;;0.96;75.97;100298.69;1780354;78;25827;-71
2022/01/31 00:40:57;;;;;;;32.60;4.75;;;;;;;0.93;75.99;100304.00;1776111;78;25840;-71
2022/01/31 00:43:22;;;;;;;26.42;3.92;;;;;;;0.92;76.04;100300.94;1781671;78;98859;-71
2022/01/31 00:46:00;;;;;;;26.20;4.97;;;;;;;0.90;76.07;100290.84;1781069;78;28254;-70
2022/01/31 00:51:05;;;;;;;28.30;4.35;;;;;;;0.94;76.11;100283.32;1855602;75;25645;-70
2022/01/31 00:53:30;;;;;;;31.02;4.75;;;;;;;0.89;76.18;100276.34;1818817;77;25260;-69
2022/01/31 00:55:56;;;;;;;27.90;3.55;;;;;;;0.87;76.22;100286.91;1734237;78;98522;-70
2022/01/31 00:58:22;;;;;;;28.83;4.70;;;;;;;0.88;76.29;100283.83;1719773;81;26000;-70
2022/01/31 01:00:48;;;;;;;32.75;3.92;;;;;;;0.86;76.28;100285.61;1694745;82;97790;-71
2022/01/31 01:03:14;;;;;;;31.75;5.22;;;;;;;0.85;76.27;100293.97;1680580;82;25964;-71
2022/01/31 01:05:39;;;;;;;24.98;3.95;;;;;;;0.87;76.31;100302.73;1676950;83;25859;-71
2022/01/31 01:08:05;;;;;;;23.55;4.37;;;;;;;0.88;76.31;100285.15;1729423;81;98280;-70
2022/01/31 01:10:32;;;;;;;29.92;4.50;;;;;;;0.87;76.33;100284.27;1730332;81;25933;-70
2022/01/31 01:12:58;;;;;;;31.00;4.22;;;;;;;0.86;76.37;100290.88;1719302;81;98567;-70
2022/01/31 01:15:24;;;;;;;25.60;3.77;;;;;;;0.85;76.38;100280.77;1708739;82;25873;-70
2022/01/31 01:17:49;;;;;;;31.50;4.92;;;;;;;0.85;76.41;100290.01;1703530;82;98680;-71
2022/01/31 01:20:16;;;;;;;31.10;4.90;;;;;;;0.83;76.44;100285.63;1698634;82;27603;-70
2022/01/31 01:22:44;;;;;;;34.08;5.55;;;;;;;0.84;76.38;100268.47;1698044;82;25778;-71
2022/01/31 01:25:11;;;;;;;33.48;5.37;;;;;;;0.85;76.47;100266.27;1697756;82;98475;-71
2022/01/31 01:27:37;;;;;;;32.08;3.90;;;;;;;0.83;76.48;100265.41;1693356;84;25881;-71
2022/01/31 01:30:07;;;;;;;28.07;5.58;;;;;;;0.85;76.58;100259.67;1694948;83;98647;-71
2022/01/31 01:32:41;;;;;;;27.93;3.45;;;;;;;0.83;76.58;100268.05;1712608;83;27388;-71
2022/01/31 01:35:04;;;;;;;28.45;4.37;;;;;;;0.82;76.76;100249.14;1717768;82;25813;-70
2022/01/31 01:37:28;;;;;;;34.53;4.22;;;;;;;0.77;76.66;100249.64;1698977;81;97682;-71
2022/01/31 01:39:54;;;;;;;22.80;4.10;;;;;;;0.78;76.67;100251.83;1686737;83;26358;-70
2022/01/31 01:42:19;;;;;;;23.77;3.83;;;;;;;0.76;76.61;100254.48;1693221;82;98638;-70
2022/01/31 01:44:50;;;;;;;37.80;4.70;;;;;;;0.76;76.65;100245.70;1704930;82;28078;-70
2022/01/31 01:47:20;;;;;;;33.58;4.03;;;;;;;0.74;76.68;100258.03;1707603;82;26502;-70
2022/01/31 01:49:47;;;;;;;31.47;4.47;;;;;;;0.74;76.73;100242.20;1705872;82;98518;-70
2022/01/31 01:52:13;;;;;;;34.98;3.87;;;;;;;0.73;76.72;100242.64;1739798;81;25386;-70
2022/01/31 01:54:39;;;;;;;26.55;5.08;;;;;;;0.73;76.78;100242.64;1726044;80;98515;-71
2022/01/31 01:57:06;;;;;;;23.20;3.52;;;;;;;0.69;76.75;100235.66;1677178;83;27417;-70
2022/01/31 01:59:34;;;;;;;22.58;4.03;;;;;;;0.67;76.76;100244.02;1677461;82;26124;-71
2022/01/31 02:02:02;;;;;;;31.27;4.03;;;;;;;0.69;76.77;100238.73;1667219;84;98467;-73
2022/01/31 02:04:28;;;;;;;29.40;4.55;;;;;;;0.68;76.79;100239.17;1674010;84;26130;-71
2022/01/31 02:06:54;;;;;;;31.27;4.65;;;;;;;0.69;76.81;100224.23;1679026;82;98495;-71
2022/01/31 02:09:22;;;;;;;21.05;3.77;;;;;;;0.50;76.71;100194.52;1698858;82;27613;-70
2022/01/31 02:11:49;;;;;;;41.33;4.97;;;;;;;0.69;76.64;100214.55;1695891;82;25817;-71
2022/01/31 02:14:15;;;;;;;27.58;4.75;;;;;;;0.72;76.63;100212.33;1702242;81;97490;-71
2022/01/31 02:16:42;;;;;;;25.05;5.55;;;;;;;0.71;76.65;100202.66;1700568;82;26481;-71
2022/01/31 02:19:08;;;;;;;21.00;3.30;;;;;;;0.73;76.71;100194.30;1701586;82;98587;-71
2022/01/31 02:21:34;;;;;;;35.38;4.25;;;;;;;0.72;76.72;100184.62;1700488;82;27422;-70
2022/01/31 02:24:00;;;;;;;17.40;3.33;;;;;;;0.72;76.58;100180.23;1699915;81;98753;-71
2022/01/31 02:26:26;;;;;;;20.10;4.20;;;;;;;0.74;76.59;100174.94;1703886;82;25930;-71
2022/01/31 02:28:52;;;;;;;22.50;3.65;;;;;;;0.71;76.49;100178.92;1703384;82;26402;-71
2022/01/31 02:31:18;;;;;;;23.70;4.25;;;;;;;0.71;76.54;100179.80;1695476;81;98524;-71
2022/01/31 02:33:44;;;;;;;31.82;3.83;;;;;;;0.69;76.51;100169.71;1698896;82;27421;-72
2022/01/31 02:36:10;;;;;;;22.67;4.17;;;;;;;0.70;76.47;100166.19;1698964;81;98746;-71
2022/01/31 02:38:35;;;;;;;26.70;5.40;;;;;;;0.67;76.50;100175.45;1720402;81;25944;-70
2022/01/31 02:41:01;;;;;;;32.40;4.10;;;;;;;0.66;76.54;100164.47;1682402;83;26411;-70
2022/01/31 02:43:34;;;;;;;33.05;4.05;;;;;;;0.65;76.49;100162.28;1715511;81;98421;-71
2022/01/31 02:46:01;;;;;;;30.15;4.28;;;;;;;0.65;76.40;100148.22;1676939;83;27499;-71
2022/01/31 02:48:30;;;;;;;18.77;3.67;;;;;;;0.65;76.48;100141.18;1719289;81;98767;-71
2022/01/31 02:50:56;;;;;;;24.37;4.17;;;;;;;0.64;76.38;100134.60;1720678;81;25784;-68
2022/01/31 02:53:28;;;;;;;31.57;4.35;;;;;;;0.62;76.44;100146.94;1713361;80;25876;-70
2022/01/31 02:55:56;;;;;;;29.35;3.70;;;;;;;0.59;76.43;100137.29;1713284;80;98432;-70
2022/01/31 02:58:25;;;;;;;30.40;3.42;;;;;;;0.59;76.45;100128.50;1724005;81;27482;-70
2022/01/31 03:00:53;;;;;;;32.60;4.15;;;;;;;0.59;76.40;100127.19;1713105;81;98559;-70
2022/01/31 03:03:20;;;;;;;17.85;3.50;;;;;;;0.59;76.43;100114.00;1713983;81;25900;-70
2022/01/31 03:05:46;;;;;;;22.75;4.20;;;;;;;0.59;76.46;100112.69;1717772;81;25944;-70
2022/01/31 03:08:12;;;;;;;33.80;4.12;;;;;;;0.58;76.44;100113.12;1707455;81;97615;-71
2022/01/31 03:10:38;;;;;;;25.20;4.20;;;;;;;0.59;76.46;100100.38;1716848;80;27462;-71
2022/01/31 03:13:05;;;;;;;29.18;4.95;;;;;;;0.59;76.46;100101.69;1713167;81;98451;-71
2022/01/31 03:15:31;;;;;;;22.77;2.98;;;;;;;0.57;76.44;100102.16;1712650;81;25863;-71
2022/01/31 03:17:58;;;;;;;30.97;5.65;;;;;;;0.57;76.50;100094.69;1716714;81;98769;-72
2022/01/31 03:20:24;;;;;;;31.52;5.67;;;;;;;0.57;76.51;100096.88;1719384;80;25819;-71
2022/01/31 03:22:52;;;;;;;29.05;3.33;;;;;;;0.56;76.48;100085.03;1717613;81;27385;-72
2022/01/31 03:25:19;;;;;;;30.57;4.03;;;;;;;0.54;76.53;100082.41;1710335;82;98522;-71
2022/01/31 03:27:47;;;;;;;28.20;5.53;;;;;;;0.54;76.59;100064.40;1719205;81;25361;-71
2022/01/31 03:30:18;;;;;;;26.05;3.50;;;;;;;0.54;76.62;100067.03;1713788;81;98643;-71
2022/01/31 03:32:45;;;;;;;26.90;4.17;;;;;;;0.53;76.67;100070.56;1713768;81;25863;-70
2022/01/31 03:35:12;;;;;;;20.80;3.80;;;;;;;0.51;76.66;100068.39;1724885;80;27550;-71
2022/01/31 03:37:38;;;;;;;31.52;3.95;;;;;;;0.50;76.60;100066.20;1710154;80;98508;-71
2022/01/31 03:40:07;;;;;;;26.02;3.85;;;;;;;0.47;76.58;100061.41;1717821;81;25824;-70
2022/01/31 03:42:35;;;;;;;38.30;4.12;;;;;;;0.45;76.52;100057.92;1716427;81;98745;-70
2022/01/31 03:45:01;;;;;;;21.52;3.58;;;;;;;0.44;76.61;100051.77;1712345;81;25867;-70
2022/01/31 03:47:27;;;;;;;27.77;4.17;;;;;;;0.45;76.56;100047.37;1730035;81;28451;-70
2022/01/31 03:49:53;;;;;;;33.98;5.90;;;;;;;0.44;76.61;100043.86;1715930;81;98503;-70
2022/01/31 03:52:19;;;;;;;37.78;4.67;;;;;;;0.46;76.66;100038.57;1724245;81;25827;-71
2022/01/31 03:54:45;;;;;;;41.15;3.65;;;;;;;0.46;76.69;100042.08;1724842;81;98540;-71
2022/01/31 03:57:11;;;;;;;20.27;3.90;;;;;;;0.48;76.75;100031.52;1718974;81;25810;-71
2022/01/31 03:59:38;;;;;;;23.20;3.45;;;;;;;0.48;76.76;100031.07;1723168;81;27369;-71
2022/01/31 04:02:06;;;;;;;30.00;4.20;;;;;;;0.49;76.79;100020.08;1719719;81;98425;-71
2022/01/31 04:04:34;;;;;;;32.78;3.65;;;;;;;0.47;76.85;100012.63;1718329;81;25864;-71
2022/01/31 04:07:01;;;;;;;18.02;3.52;;;;;;;0.47;76.79;100015.27;1716145;81;98463;-70
2022/01/31 04:09:27;;;;;;;35.28;4.75;;;;;;;0.45;76.79;100013.97;1721804;81;25926;-71
2022/01/31 04:11:54;;;;;;;21.27;3.90;;;;;;;0.47;76.81;100007.36;1682624;83;27087;-71
2022/01/31 04:14:20;;;;;;;36.90;4.50;;;;;;;0.46;76.76;100006.48;1718288;81;98596;-70
2022/01/31 04:16:46;;;;;;;27.60;4.65;;;;;;;0.45;76.75;100015.28;1720880;81;26281;-71
2022/01/31 04:19:11;;;;;;;25.17;6.22;;;;;;;0.43;76.72;100009.61;1715489;81;98457;-71
2022/01/31 04:21:37;;;;;;;32.58;5.70;;;;;;;0.42;76.73;100010.05;1728927;80;25857;-71
2022/01/31 04:24:04;;;;;;;26.30;4.20;;;;;;;0.42;76.55;100002.14;1719967;81;98700;-71
2022/01/31 04:26:33;;;;;;;46.65;8.80;;;;;;;0.41;76.71;99997.77;1699980;81;26497;-70
2022/01/31 04:29:14;;;;;;;28.38;5.78;;;;;;;0.41;76.67;99999.53;1715621;81;25739;-71
2022/01/31 04:31:44;;;;;;;31.07;5.92;;;;;;;0.38;76.68;99982.43;1727573;81;98520;-71
2022/01/31 04:34:09;;;;;;;42.93;8.50;;;;;;;0.38;76.70;99981.98;1728612;80;25900;-71
2022/01/31 04:36:36;;;;;;;53.10;9.30;;;;;;;0.37;76.74;99979.38;1721504;81;98829;-71
2022/01/31 04:39:03;;;;;;;52.80;10.20;;;;;;;0.37;76.78;99973.66;1681724;83;26161;-71
2022/01/31 04:41:29;;;;;;;36.38;7.87;;;;;;;0.36;76.82;99977.63;1698309;82;25786;-70
2022/01/31 04:44:00;;;;;;;50.98;10.00;;;;;;;0.32;76.79;99964.93;1695378;82;98313;-70
2022/01/31 04:46:23;;;;;;;40.65;7.45;;;;;;;0.35;76.81;99978.07;1695958;83;26346;-69
2022/01/31 04:48:49;;;;;;;45.73;7.22;;;;;;;0.36;76.83;99973.23;1677071;83;98402;-69
2022/01/31 04:51:15;;;;;;;31.50;5.50;;;;;;;0.36;76.84;99964.00;1671918;84;25724;-69
2022/01/31 04:53:41;;;;;;;38.40;8.30;;;;;;;0.40;76.87;99966.15;1670667;84;25960;-69
2022/01/31 04:56:07;;;;;;;44.80;9.70;;;;;;;0.43;76.91;99967.43;1668919;84;98291;-69
2022/01/31 04:58:33;;;;;;;42.50;8.15;;;;;;;0.43;76.91;99964.80;1673690;84;25752;-69
2022/01/31 05:01:00;;;;;;;44.38;6.95;;;;;;;0.43;76.93;99960.39;1685963;83;98346;-69
2022/01/31 05:03:26;;;;;;;40.95;7.90;;;;;;;0.44;76.93;99955.55;1731103;81;25766;-69
2022/01/31 05:05:53;;;;;;;39.00;9.40;;;;;;;0.46;76.97;99955.52;1735316;80;25953;-69
2022/01/31 05:08:24;;;;;;;30.08;5.10;;;;;;;0.47;77.01;99952.87;1726817;80;98079;-69
2022/01/31 05:10:49;;;;;;;33.95;7.30;;;;;;;0.47;77.04;99946.27;1730314;81;25913;-69
2022/01/31 05:13:16;;;;;;;27.07;5.03;;;;;;;0.49;77.06;99943.62;1715553;81;98380;-69
2022/01/31 05:15:44;;;;;;;36.42;6.53;;;;;;;0.49;77.07;99943.62;1701274;83;25835;-69
2022/01/31 05:18:10;;;;;;;30.95;6.10;;;;;;;0.49;77.10;99937.03;1702066;82;98452;-69
2022/01/31 05:20:36;;;;;;;28.17;4.97;;;;;;;0.51;77.13;99932.61;1732813;80;25788;-70
2022/01/31 05:23:06;;;;;;;24.15;5.03;;;;;;;0.52;77.17;99935.66;1738261;80;25941;-70
2022/01/31 05:25:32;;;;;;;73.37;8.35;;;;;;;0.53;77.18;99935.64;1717175;80;98293;-71
2022/01/31 05:27:58;;;;;;;32.75;6.53;;;;;;;0.51;77.20;99922.93;1705238;82;25783;-70
2022/01/31 05:30:24;;;;;;;29.07;5.12;;;;;;;0.55;77.13;99923.76;1700716;82;98438;-70
2022/01/31 05:32:50;;;;;;;30.85;4.00;;;;;;;0.57;77.16;99932.52;1705875;82;26413;-70
2022/01/31 05:35:16;;;;;;;27.77;5.55;;;;;;;0.58;77.27;99915.80;1661437;84;25798;-70
2022/01/31 05:37:42;;;;;;;26.37;4.90;;;;;;;0.58;77.29;99914.48;1703897;82;98301;-70
2022/01/31 05:40:11;;;;;;;38.13;5.10;;;;;;;0.58;77.33;99903.48;1704297;82;25887;-70
2022/01/31 05:42:36;;;;;;;25.25;5.08;;;;;;;0.60;77.34;99896.88;1699475;82;97741;-70
2022/01/31 05:45:03;;;;;;;33.58;5.05;;;;;;;0.60;77.37;99894.23;1709316;82;26484;-70
2022/01/31 05:47:29;;;;;;;28.52;4.50;;;;;;;0.61;77.36;99890.70;1706399;82;25948;-70
2022/01/31 05:49:55;;;;;;;23.02;3.92;;;;;;;0.60;77.41;99888.52;1700469;82;98318;-70
2022/01/31 05:52:21;;;;;;;34.53;5.47;;;;;;;0.60;77.45;99890.28;1661313;84;28210;-71
2022/01/31 05:54:46;;;;;;;42.30;8.88;;;;;;;0.59;77.48;99881.95;1696149;82;98314;-70
2022/01/31 05:57:12;;;;;;;48.80;9.53;;;;;;;0.59;77.51;99886.77;1696753;82;26458;-70
2022/01/31 05:59:40;;;;;;;31.35;6.80;;;;;;;0.58;77.54;99885.03;1694322;82;25899;-70
2022/01/31 06:02:08;;;;;;;32.60;6.12;;;;;;;0.60;77.60;99885.01;1691354;82;98359;-70
2022/01/31 06:04:35;;;;;;;22.25;4.85;;;;;;;0.60;77.65;99875.33;1697085;82;25880;-70
2022/01/31 06:07:03;;;;;;;24.07;5.42;;;;;;;0.60;77.64;99871.37;1690973;82;98423;-70
2022/01/31 06:09:31;;;;;;;31.12;6.00;;;;;;;0.59;77.70;99868.31;1694420;82;25924;-70
2022/01/31 06:11:57;;;;;;;37.35;6.58;;;;;;;0.60;77.76;99867.42;1691570;82;98472;-71
2022/01/31 06:14:24;;;;;;;25.77;6.10;;;;;;;0.61;77.83;99873.56;1690450;82;27423;-70
2022/01/31 06:16:51;;;;;;;35.98;5.85;;;;;;;0.61;77.83;99858.62;1695593;82;25860;-72
2022/01/31 06:19:17;;;;;;;27.87;6.20;;;;;;;0.61;77.89;99854.66;1691978;82;98278;-70
2022/01/31 06:21:43;;;;;;;22.82;6.20;;;;;;;0.61;77.96;99848.06;1695068;82;25851;-72
2022/01/31 06:24:10;;;;;;;34.83;5.22;;;;;;;0.64;77.99;99851.10;1658308;84;98463;-72
2022/01/31 06:26:37;;;;;;;26.42;5.47;;;;;;;0.64;78.02;99855.06;1637705;85;27400;-71
2022/01/31 06:29:04;;;;;;;34.50;4.90;;;;;;;0.64;78.04;99851.10;1658553;84;25968;-70
2022/01/31 06:31:31;;;;;;;27.20;5.55;;;;;;;0.66;78.12;99853.27;1653161;83;98428;-75
2022/01/31 06:34:01;;;;;;;30.02;5.35;;;;;;;0.68;78.15;99842.70;1696505;82;25815;-76
2022/01/31 06:36:30;;;;;;;26.77;5.72;;;;;;;0.70;78.21;99836.50;1691261;81;98473;-75
2022/01/31 06:38:56;;;;;;;30.97;6.35;;;;;;;0.72;78.28;99832.07;1671569;83;27543;-76
2022/01/31 06:41:24;;;;;;;36.00;6.92;;;;;;;0.73;78.25;99828.98;1695692;82;26477;-76
2022/01/31 06:43:51;;;;;;;45.92;7.03;;;;;;;0.72;78.30;99817.56;1664092;83;98607;-76
2022/01/31 06:46:19;;;;;;;32.05;6.67;;;;;;;0.74;78.34;99813.58;1692801;82;25771;-73
2022/01/31 06:48:45;;;;;;;44.45;7.35;;;;;;;0.76;78.30;99807.39;1695882;82;98399;-76
2022/01/31 06:51:11;;;;;;;39.73;6.58;;;;;;;0.78;78.46;99808.23;1669970;83;27328;-76
2022/01/31 06:53:37;;;;;;;35.65;7.65;;;;;;;0.79;78.55;99800.73;1664818;83;34106;-76
2022/01/31 06:56:04;;;;;;;34.48;5.35;;;;;;;0.80;78.57;99795.89;1667147;82;98287;-77
2022/01/31 06:58:30;;;;;;;36.98;7.08;;;;;;;0.82;78.60;99791.91;1693885;82;25877;-77
2022/01/31 07:00:57;;;;;;;36.30;6.33;;;;;;;0.84;78.65;99788.79;1668191;83;98431;-79
2022/01/31 07:03:24;;;;;;;28.65;5.97;;;;;;;0.87;78.68;99787.41;1689996;82;27554;-76
2022/01/31 07:05:50;;;;;;;45.35;8.60;;;;;;;0.90;78.74;99786.05;1666578;83;26365;-76
2022/01/31 07:08:16;;;;;;;27.22;6.20;;;;;;;0.92;78.81;99789.08;1723696;80;98178;-77
2022/01/31 07:10:51;;;;;;;52.85;9.20;;;;;;;0.92;78.85;99779.84;1730095;80;26469;-76
2022/01/31 07:13:24;;;;;;;46.58;7.78;;;;;;;0.95;78.92;99781.11;1724235;80;98345;-74
2022/01/31 07:15:41;;;;;;;30.40;6.90;;;;;;;0.96;78.96;99768.33;1727433;81;28943;-76
2022/01/31 07:18:07;;;;;;;31.05;8.10;;;;;;;0.97;78.99;99767.44;1730049;81;98581;-75
2022/01/31 07:20:37;;;;;;;43.05;7.90;;;;;;;0.99;79.04;99762.13;1725737;81;26511;-77
2022/01/31 07:23:08;;;;;;;38.10;8.45;;;;;;;0.94;79.08;99758.26;1729629;81;25866;-78
2022/01/31 07:25:35;;;;;;;33.25;7.65;;;;;;;1.02;79.15;99764.71;1729470;80;98911;-77
2022/01/31 07:27:59;;;;;;;38.35;8.30;;;;;;;1.03;79.20;99753.25;1725504;81;27470;-76
2022/01/31 07:30:25;;;;;;;34.33;7.12;;;;;;;1.04;79.22;99752.81;1727148;81;98469;-75
2022/01/31 07:32:51;;;;;;;50.98;7.40;;;;;;;1.06;79.32;99760.25;1731053;80;26629;-76
2022/01/31 07:35:17;;;;;;;36.03;7.80;;;;;;;1.07;79.38;99751.43;1723045;81;25912;-75
2022/01/31 07:37:43;;;;;;;33.75;8.20;;;;;;;1.09;79.48;99756.23;1724328;81;98419;-77
2022/01/31 07:40:11;;;;;;;49.58;9.55;;;;;;;1.10;79.52;99750.05;1693577;83;27473;-77
2022/01/31 07:42:36;;;;;;;54.05;12.13;;;;;;;1.11;79.58;99747.38;1726400;81;98551;-74
2022/01/31 07:45:04;;;;;;;50.88;11.65;;;;;;;1.13;79.63;99742.94;1694590;82;26183;-73
2022/01/31 07:47:30;;;;;;;51.33;9.20;;;;;;;1.15;79.66;99742.47;1697526;81;25770;-75
2022/01/31 07:49:56;;;;;;;45.15;9.40;;;;;;;1.16;79.74;99740.70;1696750;82;98382;-75
2022/01/31 07:52:22;;;;;;;44.10;9.55;;;;;;;1.18;79.81;99738.45;1692789;82;27382;-75
2022/01/31 07:54:47;;;;;;;53.78;10.05;;;;;;;1.20;79.83;99734.00;1686852;82;98368;-76
2022/01/31 07:57:14;;;;;;;43.78;11.03;;;;;;;1.22;79.90;99732.66;1728757;80;25857;-75
2022/01/31 07:59:40;;;;;;;52.70;9.23;;;;;;;1.24;79.97;99726.89;1692440;82;25877;-75
2022/01/31 08:02:06;;;;;;;46.65;8.80;;;;;;;1.25;80.07;99726.00;1686258;83;98763;-76
2022/01/31 08:04:32;;;;;;;41.28;8.85;;;;;;;1.26;80.18;99719.81;1696614;82;27507;-72
2022/01/31 08:06:58;;;;;;;47.10;9.78;;;;;;;1.25;80.25;99719.39;1692137;82;98446;-72
2022/01/31 08:09:23;;;;;;;41.83;9.50;;;;;;;1.27;80.35;99717.59;1688467;82;27583;-69
2022/01/31 08:11:49;;;;;;;42.93;9.95;;;;;;;1.27;80.45;99718.47;1698364;83;26352;-71
2022/01/31 08:14:17;;;;;;;40.63;9.28;;;;;;;1.29;80.51;99721.07;1692498;82;98224;-70
2022/01/31 08:16:43;;;;;;;56.02;11.90;;;;;;;1.31;80.56;99724.55;1693519;82;27451;-70
2022/01/31 08:19:09;;;;;;;44.88;11.15;;;;;;;1.35;80.60;99726.23;1673881;83;98545;-71
2022/01/31 08:21:38;;;;;;;58.48;11.83;;;;;;;1.37;80.62;99723.11;1677089;82;25858;-72
2022/01/31 08:24:05;;;;;;;36.35;7.75;;;;;;;1.39;80.63;99719.98;1690994;83;98693;-71
2022/01/31 08:26:32;;;;;;;45.43;8.38;;;;;;;1.42;80.82;99717.73;1667842;83;25952;-73
2022/01/31 08:29:02;;;;;;;45.92;9.43;;;;;;;1.41;80.93;99711.58;1667573;83;27497;-73
2022/01/31 08:31:38;;;;;;;32.63;8.18;;;;;;;1.42;80.85;99706.72;1650940;83;98302;-72
2022/01/31 08:36:35;;;;;;;43.28;9.18;;;;;;;1.48;80.99;99701.30;1621072;85;98585;-70
2022/01/31 08:39:08;;;;;;;43.85;12.05;;;;;;;1.47;80.96;99689.00;1640626;85;26478;-70
2022/01/31 08:41:39;;;;;;;45.58;9.53;;;;;;;1.50;81.02;99692.89;1639334;85;28132;-71
2022/01/31 08:44:05;;;;;;;;;;;;;;;1.55;81.02;99683.55;1644052;85;98323;-70
2022/01/31 08:46:33;;;;;;;45.48;8.48;;;;;;;1.58;81.06;99682.16;1694592;83;25906;-70
2022/01/31 08:48:59;;;;;;;48.50;10.72;;;;;;;1.59;81.11;99679.94;1692168;83;98376;-71
2022/01/31 08:51:25;;;;;;;50.92;9.73;;;;;;;1.62;81.12;99673.27;1689545;83;26170;-73
2022/01/31 08:53:52;;;;;;;58.45;9.20;;;;;;;1.64;81.15;99685.98;1690074;83;26998;-72
2022/01/31 08:56:19;;;;;;;46.30;8.73;;;;;;;1.65;81.16;99673.66;1688096;83;98100;-70
2022/01/31 08:58:48;;;;;;;47.17;8.65;;;;;;;1.65;81.20;99666.59;1689776;83;25774;-71
2022/01/31 09:01:20;;;;;;;36.20;8.35;;;;;;;1.68;81.28;99660.38;1666966;83;98710;-71
2022/01/31 09:06:21;;;;;;;50.78;9.38;;;;;;;1.71;81.32;99659.85;1655193;84;98522;-71
2022/01/31 09:08:48;;;;;;;69.87;10.72;;;;;;;1.70;81.28;99655.92;1652320;84;25886;-70
2022/01/31 09:11:16;;;;;;;52.78;9.25;;;;;;;1.71;81.28;99653.70;1651702;84;26344;-70
2022/01/31 09:13:42;;;;;;;54.60;9.83;;;;;;;1.70;81.26;99652.83;1668507;83;98621;-69
2022/01/31 09:16:08;;;;;;;54.42;8.63;;;;;;;1.72;81.33;99652.34;1685872;83;26485;-69
2022/01/31 09:18:35;;;;;;;51.20;9.38;;;;;;;1.73;81.32;99654.53;1678782;83;98682;-70
2022/01/31 09:21:02;;;;;;;53.35;8.23;;;;;;;1.75;81.39;99651.41;1679098;82;25972;-71
2022/01/31 09:23:29;;;;;;;49.95;9.50;;;;;;;1.74;81.34;99651.86;1644083;85;25873;-72
2022/01/31 09:25:57;;;;;;;50.00;10.00;;;;;;;1.75;81.37;99649.63;1714609;81;98291;-73
2022/01/31 09:28:24;;;;;;;55.08;9.70;;;;;;;1.76;81.36;99653.14;1713275;81;26501;-71
2022/01/31 09:30:52;;;;;;;59.35;10.25;;;;;;;1.77;81.38;99656.20;1710421;81;98638;-72
2022/01/31 09:33:19;;;;;;;55.08;9.30;;;;;;;1.80;81.43;99652.16;1706663;81;25783;-72
2022/01/31 09:35:45;;;;;;;47.70;8.43;;;;;;;1.80;81.46;99644.23;1717200;81;25770;-70
2022/01/31 09:38:14;;;;;;;30.12;7.67;;;;;;;1.81;81.52;99643.33;1721594;80;97462;-70
2022/01/31 09:40:41;;;;;;;43.35;9.63;;;;;;;1.79;81.55;99644.69;1718967;81;25821;-70
2022/01/31 09:48:33;;;;;;;59.65;13.32;;;;;;;1.91;81.65;99625.03;1714340;81;98574;-72
2022/01/31 09:51:05;;;;;;;70.90;12.28;;;;;;;1.90;81.64;99624.62;1676836;83;25808;-71
2022/01/31 09:53:36;;;;;;;50.00;9.98;;;;;;;1.93;81.73;99624.54;1653822;84;25949;-71
2022/01/31 09:56:07;;;;;;;57.13;10.60;;;;;;;1.94;81.68;99619.67;1684825;82;98363;-72
2022/01/31 09:58:32;;;;;;;54.20;10.98;;;;;;;1.92;81.80;99618.39;1691931;82;25915;-72
2022/01/31 10:01:08;;;;;;;58.87;10.90;;;;;;;1.93;81.85;99612.20;1690635;83;99037;-73
2022/01/31 10:03:59;;;;;;;48.52;10.28;;;;;;;1.94;81.85;99615.70;1667296;84;25901;-73
2022/01/31 10:06:37;;;;;;;;;;;;;;;1.98;81.90;99618.69;1660402;84;98730;-72
2022/01/31 10:09:17;;;;;;;48.70;9.08;;;;;;;1.97;81.79;99618.27;1656921;84;27486;-71
2022/01/31 10:11:51;;;;;;;46.20;9.65;;;;;;;1.93;81.85;99614.84;1715561;81;26307;-72
2022/01/31 10:17:28;;;;;;;45.28;9.45;;;;;;;1.89;81.94;99603.93;1713399;80;26165;-72
2022/01/31 10:19:59;;;;;;;47.67;10.45;;;;;;;1.93;81.95;99606.91;1715262;81;98280;-71
2022/01/31 10:22:30;;;;;;;;;;;;;;;1.95;82.00;99599.81;1657403;84;27305;-71
2022/01/31 10:25:02;;;;;;;60.08;10.55;;;;;;;1.97;82.00;99602.88;1670026;84;83571;-72
2022/01/31 10:27:34;;;;;;;49.55;9.65;;;;;;;1.94;82.03;99595.89;1671037;84;25990;-73
2022/01/31 10:30:17;;;;;;;44.58;8.68;;;;;;;1.96;82.07;99600.68;1675349;83;98469;-72
2022/01/31 10:32:48;;;;;;;59.00;10.15;;;;;;;1.99;82.11;99596.64;1672361;84;25953;-72
2022/01/31 10:35:22;;;;;;;54.83;10.30;;;;;;;2.01;82.12;99592.64;1670744;84;27410;-73
2022/01/31 10:37:55;;;;;;;40.35;9.85;;;;;;;2.03;82.13;99599.63;1714178;81;99158;-72
2022/01/31 10:56:52;;;;;;;57.38;10.55;;;;;;;2.14;82.30;99575.10;1716250;81;25911;-72
2022/01/31 10:59:31;;;;;;;59.75;9.00;;;;;;;2.16;82.35;99582.54;1667022;84;25847;-71
2022/01/31 11:01:59;;;;;;;51.90;11.48;;;;;;;2.15;82.28;99582.58;1668357;84;98333;-73
2022/01/31 11:04:40;;;;;;;43.23;9.03;;;;;;;2.16;82.34;99579.03;1670279;84;26509;-73
2022/01/31 11:07:10;;;;;;;55.98;10.05;;;;;;;2.18;82.32;99571.92;1718697;81;98436;-73
2022/01/31 11:09:38;;;;;;;46.33;8.48;;;;;;;2.21;82.35;99567.88;1717788;81;25777;-72
2022/01/31 11:12:06;;;;;;;38.98;8.65;;;;;;;2.22;82.31;99563.88;1726231;81;98926;-72
2022/01/31 11:14:34;;;;;;;42.17;6.60;;;;;;;2.26;82.32;99564.20;1721926;80;28102;-71
2022/01/31 11:17:10;;;;;;;39.90;7.30;;;;;;;2.28;82.27;99561.06;1721384;81;25738;-70
2022/01/31 11:19:39;;;;;;;35.78;8.90;;;;;;;2.27;82.29;99565.94;1720774;81;98402;-70
2022/01/31 11:22:10;;;;;;;40.05;7.60;;;;;;;2.26;82.20;99557.59;1712769;81;25890;-71
2022/01/31 11:24:47;;;;;;;37.80;7.35;;;;;;;2.24;82.15;99558.09;1717750;81;98594;-70
2022/01/31 11:27:19;;;;;;;52.78;9.20;;;;;;;2.25;82.17;99566.44;1714667;80;28317;-70
2022/01/31 11:29:49;;;;;;;32.75;6.05;;;;;;;2.26;82.02;99560.69;1718437;81;26290;-70
2022/01/31 11:32:15;;;;;;;65.12;7.28;;;;;;;2.21;81.97;99562.14;1708570;81;98129;-70
2022/01/31 11:34:44;;;;;;;47.27;7.12;;;;;;;2.23;82.01;99564.28;1718661;81;25695;-70
2022/01/31 11:37:14;;;;;;;39.10;8.53;;;;;;;2.26;81.98;99557.59;1719843;81;98381;-71
2022/01/31 11:39:46;;;;;;;45.17;7.37;;;;;;;2.27;81.91;99549.20;1698613;81;27471;-71
2022/01/31 11:42:13;;;;;;;;;;;;;;;2.29;81.92;99543.42;1717882;81;98491;-71
2022/01/31 11:44:44;;;;;;;45.20;6.85;;;;;;;2.31;81.90;99549.98;1716874;81;25922;-70
2022/01/31 11:47:12;;;;;;;44.03;6.83;;;;;;;2.34;81.91;99544.62;1695168;82;25840;-70
2022/01/31 11:49:52;;;;;;;33.13;7.05;;;;;;;2.34;81.84;99539.33;1693102;82;98703;-70
2022/01/31 11:52:21;;;;;;;62.63;8.07;;;;;;;2.30;81.78;99546.48;1687325;83;27465;-70
2022/01/31 11:54:51;;;;;;;41.85;7.25;;;;;;;2.34;81.79;99547.27;1691241;83;98276;-70
2022/01/31 11:57:27;;;;;;;52.48;9.68;;;;;;;2.36;81.75;99541.48;1672652;84;25926;-72
2022/01/31 11:59:57;;;;;;;47.10;8.70;;;;;;;2.42;81.75;99538.66;1669970;84;26421;-70
2022/01/31 12:02:25;;;;;;;52.70;7.72;;;;;;;2.46;81.74;99542.50;1687577;82;98098;-71
2022/01/31 12:04:52;;;;;;;44.18;7.70;;;;;;;2.53;81.80;99541.42;1687083;82;28143;-71
2022/01/31 12:07:41;;;;;;;49.45;7.78;;;;;;;2.60;81.73;99540.30;1731708;81;98396;-70